createdAt,value
2023-01-23T00:01:37.553Z,6.10
2023-01-23T00:04:05.877Z,6.30
2023-01-23T00:06:32.635Z,6.33
2023-01-23T00:08:59.617Z,6.45
2023-01-23T00:11:28.540Z,6.17
2023-01-23T00:13:59.425Z,6.03
2023-01-23T00:16:31.580Z,6.03
2023-01-23T00:19:00.858Z,6.93
2023-01-23T00:21:29.377Z,5.63
2023-01-23T00:23:59.840Z,6.07
2023-01-23T00:26:28.802Z,6.00
2023-01-23T00:28:56.372Z,5.93
2023-01-23T00:31:26.590Z,5.97
2023-01-23T00:33:58.560Z,6.33
2023-01-23T00:36:28.937Z,7.03
2023-01-23T00:38:56.281Z,6.47
2023-01-23T00:41:23.476Z,6.47
2023-01-23T00:43:52.675Z,7.23
2023-01-23T00:46:20.569Z,6.00
2023-01-23T00:48:47.769Z,6.27
2023-01-23T00:51:14.810Z,7.30
2023-01-23T00:53:43.641Z,7.77
2023-01-23T00:56:12.784Z,6.33
2023-01-23T00:58:43.400Z,6.50
2023-01-23T01:01:12.165Z,7.07
2023-01-23T01:03:39.159Z,6.87
2023-01-23T01:06:08.117Z,6.63
2023-01-23T01:08:37.373Z,7.97
2023-01-23T01:11:04.901Z,7.47
2023-01-23T01:13:36.775Z,7.30
2023-01-23T01:16:03.865Z,7.73
2023-01-23T01:18:30.527Z,8.15
2023-01-23T01:20:58.323Z,7.83
2023-01-23T01:23:25.334Z,7.73
2023-01-23T01:25:52.101Z,8.07
2023-01-23T01:28:21.226Z,7.43
2023-01-23T01:30:50.398Z,7.37
2023-01-23T01:33:17.099Z,9.00
2023-01-23T01:35:43.745Z,8.80
2023-01-23T01:38:10.449Z,7.83
2023-01-23T01:40:37.820Z,8.40
2023-01-23T01:43:17.232Z,7.77
2023-01-23T01:46:02.833Z,7.60
2023-01-23T01:48:52.052Z,8.40
2023-01-23T01:51:30.046Z,8.10
2023-01-23T01:54:16.740Z,8.47
2023-01-23T01:56:54.703Z,8.00
2023-01-23T01:59:25.714Z,7.70
2023-01-23T02:02:04.937Z,7.77
2023-01-23T02:04:40.731Z,6.83
2023-01-23T02:07:15.741Z,7.27
2023-01-23T02:09:45.123Z,7.33
2023-01-23T02:12:11.832Z,7.57
2023-01-23T02:14:38.586Z,8.50
2023-01-23T02:17:07.516Z,7.63
2023-01-23T02:19:40.482Z,7.13
2023-01-23T02:22:12.053Z,7.93
2023-01-23T02:24:55.194Z,7.60
2023-01-23T02:27:21.946Z,7.53
2023-01-23T02:29:48.745Z,8.20
2023-01-23T02:32:15.559Z,7.77
2023-01-23T02:34:45.875Z,6.90
2023-01-23T02:37:15.213Z,8.37
2023-01-23T02:39:44.287Z,7.67
2023-01-23T02:42:11.205Z,8.30
2023-01-23T02:44:40.032Z,8.30
2023-01-23T02:47:12.458Z,7.17
2023-01-23T02:49:40.296Z,7.10
2023-01-23T02:52:07.398Z,8.33
2023-01-23T02:54:36.219Z,7.65
2023-01-23T02:57:02.974Z,7.53
2023-01-23T02:59:48.447Z,7.10
2023-01-23T03:02:17.891Z,7.77
2023-01-23T03:04:46.966Z,7.10
2023-01-23T03:07:13.819Z,7.27
2023-01-23T03:09:43.744Z,8.53
2023-01-23T03:12:15.504Z,7.47
2023-01-23T03:14:42.335Z,7.70
2023-01-23T03:17:10.986Z,8.93
2023-01-23T03:19:38.979Z,7.50
2023-01-23T03:22:05.856Z,8.57
2023-01-23T03:24:36.422Z,8.67
2023-01-23T03:27:05.592Z,7.53
2023-01-23T03:29:50.899Z,8.53
2023-01-23T03:32:17.663Z,7.37
2023-01-23T03:34:46.580Z,8.27
2023-01-23T03:37:17.528Z,9.02
2023-01-23T03:40:02.920Z,9.27
2023-01-23T03:42:29.709Z,8.50
2023-01-23T03:44:56.382Z,14.30
2023-01-23T03:47:23.082Z,8.07
2023-01-23T03:49:51.915Z,8.33
2023-01-23T03:52:21.284Z,8.87
2023-01-23T03:54:47.932Z,8.10
2023-01-23T03:57:17.019Z,9.30
2023-01-23T03:59:43.906Z,8.23
2023-01-23T04:02:11.113Z,8.83
2023-01-23T04:04:37.771Z,8.88
2023-01-23T04:07:04.996Z,8.63
2023-01-23T04:09:31.733Z,9.37
2023-01-23T04:11:59.467Z,8.80
2023-01-23T04:14:37.137Z,7.97
2023-01-23T04:17:08.470Z,7.53
2023-01-23T04:19:37.971Z,10.07
2023-01-23T04:22:04.996Z,8.50
2023-01-23T04:24:34.056Z,9.40
2023-01-23T04:27:02.817Z,7.90
2023-01-23T04:29:29.578Z,10.93
2023-01-23T04:32:00.863Z,9.23
2023-01-23T04:34:27.547Z,8.53
2023-01-23T04:36:54.185Z,7.90
2023-01-23T04:39:23.225Z,10.03
2023-01-23T04:41:49.952Z,10.67
2023-01-23T04:44:22.852Z,8.53
2023-01-23T04:46:53.964Z,9.38
2023-01-23T04:49:24.814Z,8.10
2023-01-23T04:51:52.465Z,8.83
2023-01-23T04:54:20.588Z,7.67
2023-01-23T04:56:48.500Z,8.60
2023-01-23T04:59:16.695Z,7.97
2023-01-23T05:01:43.942Z,7.67
2023-01-23T05:04:10.625Z,9.00
2023-01-23T05:06:37.308Z,10.23
2023-01-23T05:09:04.028Z,8.50
2023-01-23T05:11:30.867Z,8.37
2023-01-23T05:13:59.747Z,8.70
2023-01-23T05:16:26.438Z,9.80
2023-01-23T05:18:55.376Z,9.60
2023-01-23T05:21:24.669Z,8.23
2023-01-23T05:23:53.552Z,9.43
2023-01-23T05:26:22.744Z,8.27
2023-01-23T05:28:54.180Z,9.95
2023-01-23T05:31:23.122Z,10.20
2023-01-23T05:33:52.451Z,9.93
2023-01-23T05:36:21.402Z,10.07
2023-01-23T05:38:48.078Z,9.07
2023-01-23T05:41:17.176Z,9.27
2023-01-23T05:43:44.383Z,9.53
2023-01-23T05:46:11.047Z,9.37
2023-01-23T05:48:40.232Z,9.77
2023-01-23T05:51:06.986Z,10.07
2023-01-23T05:53:36.190Z,9.63
2023-01-23T05:56:07.114Z,8.87
2023-01-23T05:58:36.200Z,8.93
2023-01-23T06:01:04.460Z,9.97
2023-01-23T06:03:31.244Z,9.17
2023-01-23T06:05:58.030Z,9.50
2023-01-23T06:08:24.703Z,10.23
2023-01-23T06:10:51.994Z,10.97
2023-01-23T06:13:18.673Z,8.47
2023-01-23T06:15:45.369Z,9.70
2023-01-23T06:18:14.569Z,10.10
2023-01-23T06:20:43.581Z,9.40
2023-01-23T06:23:11.498Z,11.73
2023-01-23T06:25:38.490Z,9.47
2023-01-23T06:28:05.445Z,11.37
2023-01-23T06:30:34.680Z,11.27
2023-01-23T06:33:01.436Z,9.70
2023-01-23T06:35:30.295Z,10.30
2023-01-23T06:37:59.258Z,10.30
2023-01-23T06:40:25.965Z,9.50
2023-01-23T06:42:55.075Z,9.77
2023-01-23T06:45:26.452Z,10.63
2023-01-23T06:47:55.596Z,11.17
2023-01-23T06:50:22.496Z,12.10
2023-01-23T06:52:49.365Z,11.45
2023-01-23T06:55:16.100Z,11.10
2023-01-23T06:57:42.739Z,10.10
2023-01-23T07:00:12.534Z,11.70
2023-01-23T07:02:42.532Z,10.73
2023-01-23T07:05:10.746Z,10.40
2023-01-23T07:07:37.431Z,9.80
2023-01-23T07:10:07.267Z,10.13
2023-01-23T07:12:34.192Z,10.50
2023-01-23T07:15:00.950Z,10.67
2023-01-23T07:17:27.709Z,10.80
2023-01-23T07:19:54.342Z,10.17
2023-01-23T07:22:22.756Z,9.93
2023-01-23T07:24:49.480Z,10.50
2023-01-23T07:27:16.544Z,11.10
2023-01-23T07:29:44.557Z,12.57
2023-01-23T07:32:13.546Z,10.13
2023-01-23T07:34:40.323Z,11.57
2023-01-23T07:37:07.017Z,10.20
2023-01-23T07:39:35.988Z,10.53
2023-01-23T07:42:02.766Z,11.27
2023-01-23T07:44:31.998Z,9.87
2023-01-23T07:46:58.736Z,11.20
2023-01-23T07:49:25.473Z,9.40
2023-01-23T07:51:52.154Z,9.70
2023-01-23T07:54:18.913Z,9.87
2023-01-23T07:56:45.789Z,12.47
2023-01-23T07:59:14.982Z,11.67
2023-01-23T08:01:41.783Z,10.67
2023-01-23T08:04:10.795Z,10.80
2023-01-23T08:06:39.980Z,10.17
2023-01-23T08:09:06.908Z,11.83
2023-01-23T08:11:34.492Z,9.80
2023-01-23T08:14:03.781Z,10.00
2023-01-23T08:16:30.755Z,11.23
2023-01-23T08:18:59.833Z,10.67
2023-01-23T08:21:28.950Z,11.57
2023-01-23T08:23:58.140Z,10.43
2023-01-23T08:26:24.790Z,10.40
2023-01-23T08:28:51.476Z,9.37
2023-01-23T08:31:20.652Z,11.67
2023-01-23T08:33:47.543Z,10.60
2023-01-23T08:36:14.446Z,10.53
2023-01-23T08:38:41.240Z,11.40
2023-01-23T08:41:12.826Z,10.67
2023-01-23T08:43:41.601Z,9.80
2023-01-23T08:46:11.563Z,9.70
2023-01-23T08:48:38.954Z,10.00
2023-01-23T08:51:11.013Z,11.03
2023-01-23T08:53:37.735Z,9.63
2023-01-23T08:56:16.893Z,9.87
2023-01-23T08:58:44.132Z,12.17
2023-01-23T09:01:17.707Z,10.07
2023-01-23T09:03:46.881Z,9.27
2023-01-23T09:06:15.632Z,10.57
2023-01-23T09:08:45.314Z,10.67
2023-01-23T09:11:15.437Z,10.88
2023-01-23T09:13:42.538Z,10.80
2023-01-23T09:16:09.485Z,9.30
2023-01-23T09:18:37.062Z,12.67
2023-01-23T09:21:12.770Z,10.90
2023-01-23T09:23:39.430Z,11.43
2023-01-23T09:26:08.879Z,9.33
2023-01-23T09:28:37.099Z,10.17
2023-01-23T09:31:07.795Z,9.63
2023-01-23T09:33:35.374Z,11.50
2023-01-23T09:36:05.291Z,11.37
2023-01-23T09:38:34.613Z,11.93
2023-01-23T09:41:12.642Z,11.00
2023-01-23T09:44:02.996Z,12.90
2023-01-23T09:46:48.050Z,12.90
2023-01-23T09:49:24.676Z,9.97
2023-01-23T09:52:21.784Z,11.17
2023-01-23T09:54:50.221Z,13.23
2023-01-23T09:57:29.888Z,11.60
2023-01-23T10:00:06.868Z,11.20
2023-01-23T10:02:36.787Z,10.73
2023-01-23T10:05:03.804Z,12.20
2023-01-23T10:07:39.392Z,16.37
2023-01-23T10:10:30.363Z,4.83
2023-01-23T10:13:04.678Z,39.70
2023-01-23T10:15:41.883Z,18.33
2023-01-23T10:18:08.492Z,22.15
2023-01-23T10:20:50.222Z,17.43
2023-01-23T10:23:22.591Z,14.43
2023-01-23T10:25:53.088Z,17.60
2023-01-23T10:28:40.222Z,22.77
2023-01-23T10:31:33.190Z,15.73
2023-01-23T10:34:38.015Z,16.70
2023-01-23T10:37:21.601Z,22.23
2023-01-23T10:40:01.982Z,17.33
2023-01-23T10:42:28.856Z,19.27
2023-01-23T10:44:55.669Z,13.67
2023-01-23T10:47:43.457Z,20.37
2023-01-23T10:50:11.542Z,43.67
2023-01-23T10:52:39.484Z,74.13
2023-01-23T10:55:27.413Z,43.33
2023-01-23T10:58:01.244Z,62.60
2023-01-23T11:00:36.298Z,58.37
2023-01-23T11:03:21.185Z,50.50
2023-01-23T11:06:09.641Z,51.97
2023-01-23T11:08:39.416Z,25.90
2023-01-23T11:11:15.431Z,32.03
2023-01-23T11:13:48.202Z,12.90
2023-01-23T11:16:17.268Z,20.57
2023-01-23T11:18:55.458Z,14.87
2023-01-23T11:21:31.967Z,18.23
2023-01-23T11:24:24.771Z,22.90
2023-01-23T11:27:20.136Z,11.57
2023-01-23T11:29:55.756Z,12.73
2023-01-23T11:32:28.442Z,13.90
2023-01-23T11:35:13.099Z,12.30
2023-01-23T11:37:44.927Z,13.30
2023-01-23T11:40:21.557Z,11.23
2023-01-23T11:42:52.585Z,13.43
2023-01-23T11:45:43.601Z,16.23
2023-01-23T11:48:41.144Z,14.33
2023-01-23T11:51:37.924Z,20.95
2023-01-23T11:54:25.230Z,19.67
2023-01-23T11:57:13.705Z,25.43
2023-01-23T11:59:46.410Z,20.70
2023-01-23T12:02:19.126Z,21.13
2023-01-23T12:05:05.856Z,25.37
2023-01-23T12:07:57.975Z,24.13
2023-01-23T12:10:52.538Z,34.67
2023-01-23T12:13:56.600Z,23.33
2023-01-23T12:16:29.491Z,19.13
2023-01-23T12:19:16.044Z,22.38
2023-01-23T12:22:03.610Z,17.13
2023-01-23T12:25:05.664Z,18.53
2023-01-23T12:27:42.019Z,16.00
2023-01-23T12:30:30.657Z,16.43
2023-01-23T12:33:26.381Z,14.17
2023-01-23T12:36:21.308Z,18.30
2023-01-23T12:38:50.576Z,16.77
2023-01-23T12:41:38.706Z,13.07
2023-01-23T12:44:17.047Z,13.20
2023-01-23T12:46:50.851Z,12.23
2023-01-23T12:49:28.068Z,13.77
2023-01-23T12:52:02.797Z,13.40
2023-01-23T12:54:59.335Z,11.80
2023-01-23T12:57:59.668Z,16.95
2023-01-23T13:01:04.525Z,12.07
2023-01-23T13:03:56.507Z,11.87
2023-01-23T13:06:47.339Z,11.33
2023-01-23T13:09:22.099Z,12.07
2023-01-23T13:12:20.333Z,14.02
2023-01-23T13:15:10.193Z,9.77
2023-01-23T13:17:50.648Z,10.90
2023-01-23T13:20:39.060Z,11.13
2023-01-23T13:23:29.235Z,11.57
2023-01-23T13:26:23.094Z,10.60
2023-01-23T13:28:55.228Z,9.47
2023-01-23T13:31:46.507Z,10.80
2023-01-23T13:34:16.595Z,9.27
2023-01-23T13:36:51.336Z,11.20
2023-01-23T13:39:26.191Z,11.43
2023-01-23T13:42:16.185Z,18.53
2023-01-23T13:45:16.814Z,39.30
2023-01-23T14:22:31.424Z,11.43
2023-01-23T14:24:59.057Z,11.17
2023-01-23T14:27:36.767Z,20.70
2023-01-23T14:30:16.004Z,16.00
2023-01-23T14:32:43.645Z,14.90
2023-01-23T14:35:40.192Z,10.30
2023-01-23T14:38:08.185Z,12.17
2023-01-23T14:40:49.369Z,11.13
2023-01-23T14:43:25.205Z,10.23
2023-01-23T14:46:03.778Z,10.97
2023-01-23T14:48:35.252Z,12.23
2023-01-23T14:51:20.115Z,11.40
2023-01-23T14:54:20.400Z,15.63
2023-01-23T14:56:50.135Z,14.10
2023-01-23T14:59:27.634Z,12.60
2023-01-23T15:02:01.959Z,10.50
2023-01-23T15:04:31.990Z,10.47
2023-01-23T15:07:01.343Z,10.75
2023-01-23T15:09:42.726Z,9.40
2023-01-23T15:12:16.938Z,9.07
2023-01-23T15:14:44.484Z,9.63
2023-01-23T15:17:19.329Z,11.53
2023-01-23T15:19:55.256Z,11.13
2023-01-23T15:22:27.731Z,10.57
2023-01-23T15:24:54.662Z,9.93
2023-01-23T15:27:36.321Z,8.83
2023-01-23T15:30:35.368Z,10.23
2023-01-23T15:33:07.304Z,10.93
2023-01-23T15:35:35.906Z,11.67
2023-01-23T15:38:05.107Z,8.93
2023-01-23T15:40:35.432Z,10.33
2023-01-23T15:43:11.429Z,10.97
2023-01-23T15:45:40.561Z,10.67
2023-01-23T15:48:07.815Z,10.97
2023-01-23T15:50:34.754Z,9.17
2023-01-23T15:53:03.711Z,11.63
2023-01-23T15:55:30.492Z,9.80
2023-01-23T15:57:57.377Z,9.90
2023-01-23T16:00:27.008Z,9.83
2023-01-23T16:02:57.020Z,10.53
2023-01-23T16:05:32.336Z,11.67
2023-01-23T16:08:05.754Z,10.93
2023-01-23T16:10:37.154Z,10.07
2023-01-23T16:13:05.021Z,11.30
2023-01-23T16:15:33.867Z,9.77
2023-01-23T16:18:04.709Z,10.17
2023-01-23T16:20:34.400Z,10.00
2023-01-23T16:23:14.612Z,10.00
2023-01-23T16:25:45.469Z,9.87
2023-01-23T16:28:20.472Z,9.80
2023-01-23T16:30:48.360Z,12.10
2023-01-23T16:33:15.997Z,10.17
2023-01-23T16:35:43.956Z,11.37
2023-01-23T16:38:20.973Z,11.13
2023-01-23T16:40:50.707Z,9.63
2023-01-23T16:43:17.515Z,11.97
2023-01-23T16:45:44.325Z,11.70
2023-01-23T16:48:21.601Z,10.50
2023-01-23T16:50:58.873Z,10.93
2023-01-23T16:53:32.856Z,10.30
2023-01-23T16:56:02.194Z,9.90
2023-01-23T16:58:34.905Z,10.90
2023-01-23T17:01:04.937Z,10.20
2023-01-23T17:03:37.674Z,9.17
2023-01-23T17:06:09.838Z,10.80
2023-01-23T17:08:36.914Z,11.20
2023-01-23T17:11:05.122Z,9.03
2023-01-23T17:13:35.071Z,8.90
2023-01-23T17:16:04.095Z,10.53
2023-01-23T17:18:36.402Z,10.37
2023-01-23T17:21:05.845Z,10.87
2023-01-23T17:23:34.747Z,10.73
2023-01-23T17:26:01.926Z,9.07
2023-01-23T17:28:29.260Z,11.07
2023-01-23T17:31:00.426Z,9.73
2023-01-23T17:33:32.743Z,12.53
2023-01-23T17:36:01.030Z,9.70
2023-01-23T17:38:31.484Z,10.50
2023-01-23T17:40:58.136Z,10.90
2023-01-23T17:43:27.578Z,11.73
2023-01-23T17:45:54.440Z,11.23
2023-01-23T17:48:28.545Z,11.43
2023-01-23T17:50:55.869Z,11.87
2023-01-23T17:53:25.501Z,10.17
2023-01-23T17:55:54.766Z,10.27
2023-01-23T17:58:24.027Z,10.67
2023-01-23T18:00:56.000Z,10.27
2023-01-23T18:03:24.793Z,10.57
2023-01-23T18:05:53.945Z,10.00
2023-01-23T18:08:22.809Z,10.77
2023-01-23T18:10:53.408Z,11.10
2023-01-23T18:14:02.020Z,9.33
2023-01-23T18:16:47.686Z,10.30
2023-01-23T18:19:23.363Z,10.50
2023-01-23T18:21:56.004Z,12.20
2023-01-23T18:24:31.458Z,10.33
2023-01-23T18:27:23.150Z,9.97
2023-01-23T18:29:49.835Z,12.20
2023-01-23T18:32:37.874Z,10.73
2023-01-23T18:35:31.826Z,10.63
2023-01-23T18:38:23.318Z,10.50
2023-01-23T18:41:25.688Z,10.23
2023-01-23T18:44:11.714Z,10.80
2023-01-23T18:46:38.799Z,10.87
2023-01-23T18:49:14.964Z,11.43
2023-01-23T18:52:07.034Z,10.27
2023-01-23T18:54:37.814Z,10.17
2023-01-23T18:57:29.007Z,11.57
2023-01-23T19:00:12.698Z,11.17
2023-01-23T19:02:52.776Z,11.13
2023-01-23T19:05:36.914Z,10.10
2023-01-23T19:08:03.985Z,11.03
2023-01-23T19:10:47.682Z,10.50
2023-01-23T19:13:25.004Z,9.83
2023-01-23T19:16:07.224Z,11.40
2023-01-23T19:18:52.958Z,10.20
2023-01-23T19:21:26.629Z,9.50
2023-01-23T19:23:57.224Z,9.97
2023-01-23T19:26:32.643Z,10.37
2023-01-23T19:29:08.438Z,12.07
2023-01-23T19:31:45.485Z,10.60
2023-01-23T19:34:22.157Z,11.27
2023-01-23T19:36:50.990Z,10.57
2023-01-23T19:39:17.863Z,9.40
2023-01-23T19:41:49.748Z,10.60
2023-01-23T19:44:18.656Z,10.00
2023-01-23T19:46:46.163Z,12.47
2023-01-23T19:49:16.549Z,11.13
2023-01-23T19:51:43.297Z,10.30
2023-01-23T19:54:13.287Z,11.50
2023-01-23T19:56:42.759Z,11.50
2023-01-23T19:59:09.915Z,10.57
2023-01-23T20:01:45.382Z,11.03
2023-01-23T20:04:17.351Z,11.27
2023-01-23T20:06:48.837Z,11.03
2023-01-23T20:09:16.095Z,12.57
2023-01-23T20:11:44.344Z,10.33
2023-01-23T20:14:11.881Z,10.83
2023-01-23T20:16:42.885Z,10.27
2023-01-23T20:19:14.336Z,10.50
2023-01-23T20:21:41.158Z,10.50
2023-01-23T20:24:10.679Z,8.97
2023-01-23T20:26:38.707Z,9.80
2023-01-23T20:29:07.084Z,9.40
2023-01-23T20:31:36.558Z,9.70
2023-01-23T20:34:03.587Z,13.07
2023-01-23T20:36:30.483Z,11.93
2023-01-23T20:38:58.280Z,10.20
2023-01-23T20:41:25.099Z,10.67
2023-01-23T20:43:52.185Z,10.23
2023-01-23T20:46:19.356Z,11.43
2023-01-23T20:48:48.490Z,10.07
2023-01-23T20:51:16.258Z,9.93
2023-01-23T20:53:43.390Z,10.93
2023-01-23T20:56:12.705Z,10.83
2023-01-23T20:59:03.004Z,11.30
2023-01-23T21:01:54.205Z,11.00
2023-01-23T21:04:22.540Z,11.07
2023-01-23T21:06:51.751Z,10.93
2023-01-23T21:09:18.655Z,11.27
2023-01-23T21:11:45.854Z,10.53
2023-01-23T21:14:13.680Z,11.47
2023-01-23T21:16:40.555Z,12.07
2023-01-23T21:19:07.453Z,10.77
2023-01-23T21:21:34.740Z,10.20
2023-01-23T21:24:01.525Z,10.03
2023-01-23T21:26:29.074Z,10.20
2023-01-23T21:28:57.243Z,10.80
2023-01-23T21:31:41.553Z,11.37
2023-01-23T21:34:11.451Z,11.40
2023-01-23T21:36:39.027Z,11.53
2023-01-23T21:39:08.592Z,9.97
2023-01-23T21:41:36.025Z,11.07
2023-01-23T21:44:02.660Z,10.70
2023-01-23T21:46:34.044Z,11.07
2023-01-23T21:49:00.770Z,10.97
2023-01-23T21:51:30.196Z,10.00
2023-01-23T21:53:56.921Z,11.40
2023-01-23T21:56:26.567Z,10.20
2023-01-23T21:58:58.821Z,11.03
2023-01-23T22:01:42.035Z,10.07
2023-01-23T22:04:13.015Z,10.57
2023-01-23T22:06:44.907Z,11.80
2023-01-23T22:09:17.398Z,10.13
2023-01-23T22:11:45.125Z,10.97
2023-01-23T22:14:12.124Z,10.97
2023-01-23T22:16:48.509Z,11.40
2023-01-23T22:19:23.351Z,10.93
2023-01-23T22:21:51.546Z,12.30
2023-01-23T22:24:18.380Z,11.63
2023-01-23T22:26:45.118Z,10.83
2023-01-23T22:29:13.769Z,11.53
2023-01-23T22:31:40.797Z,10.50
2023-01-23T22:34:09.989Z,11.17
2023-01-23T22:36:38.864Z,11.40
2023-01-23T22:39:05.786Z,12.47
2023-01-23T22:41:32.609Z,11.43
2023-01-23T22:44:01.820Z,12.03
2023-01-23T22:46:29.239Z,11.82
2023-01-23T22:49:00.668Z,11.07
2023-01-23T22:51:28.389Z,13.20
2023-01-23T22:53:56.304Z,10.77
2023-01-23T22:56:24.022Z,10.70
2023-01-23T22:58:54.587Z,11.50
2023-01-23T23:01:23.413Z,12.07
2023-01-23T23:03:50.465Z,13.03
2023-01-23T23:06:17.414Z,12.07
2023-01-23T23:08:47.500Z,13.20
2023-01-23T23:11:21.494Z,13.20
2023-01-23T23:13:53.345Z,13.07
2023-01-23T23:16:23.291Z,12.93
2023-01-23T23:18:54.474Z,12.53
2023-01-23T23:21:24.191Z,10.93
2023-01-23T23:23:52.128Z,12.87
2023-01-23T23:26:18.980Z,12.52
2023-01-23T23:28:45.681Z,12.50
2023-01-23T23:31:14.742Z,12.83
2023-01-23T23:33:41.422Z,12.67
2023-01-23T23:36:08.486Z,13.50
2023-01-23T23:38:35.349Z,11.90
2023-01-23T23:41:06.841Z,13.25
2023-01-23T23:43:36.253Z,12.23
2023-01-23T23:46:07.707Z,14.43
2023-01-23T23:48:36.535Z,12.03
2023-01-23T23:51:05.930Z,12.70
2023-01-23T23:53:33.542Z,13.73
2023-01-23T23:56:00.319Z,13.07
2023-01-23T23:58:29.803Z,12.67
